KHTH

Hawthorne Industrial Airport

Hawthorne, Nevada, USA
METAR KHTH 230755Z AUTO 00000KT 10SM FEW046 BKN055 OVC075 M03/M06 A3002 RMK A01
Observed Flight Rules
Feb-23 @ 07:55 UTC (27 minutes ago) Visual Flight Rules
Wind Visibility Clouds
Calm 10 miles
  • Few at 4,600' AGL
  • Broken at 5,500' AGL
  • Overcast at 7,500' AGL
Temperatures Readings
Current -3°C / 27°F
Dewpoint -6°C / 21°F
Humidity 80%
Altimeter 30.02" Hg
Pressure 1017 hPa
METAR KHTH 230755Z AUTO 00000KT 10SM FEW046 BKN055 OVC075 M03/M06 A3002 RMK A01
Observed Flight Rules
Feb-23 @ 07:55 UTC
(27 minutes ago)
VFR
Wind Visibility
Calm 10 miles
Clouds
  • Few at 4,600' AGL
  • Broken at 5,500' AGL
  • Overcast at 7,500' AGL
Temperature Dewpoint
-3°C / 27°F -6°C / 21°F
Humidity Altimeter Pressure
80% 30.02" Hg 1017 hPa